Time;durP1;ratioP1;P1;durP2;ratioP2;P2;SDS_P1;SDS_P2;PMS_P1;PMS_P2;Temp;Humidity;BMP_temperature;BMP_pressure;BME280_temperature;BME280_humidity;BME280_pressure;Samples;Min_cycle;Max_cycle;Signal;HPM_P1;HPM_P2
2021/10/06 00:01:01;;;;;;;;;0.00;0.00;;;;;14.31;64.88;101306.13;4952893;28;46063;-59
2021/10/06 00:03:27;;;;;;;;;2.00;0.00;;;;;14.27;64.92;101308.13;4953862;28;45531;-59
2021/10/06 00:05:52;;;;;;;;;3.00;1.00;;;;;14.26;64.83;101311.72;4952145;28;45527;-59
2021/10/06 00:08:18;;;;;;;;;2.50;0.00;;;;;14.27;64.95;101318.72;4950254;28;45528;-59
2021/10/06 00:10:44;;;;;;;;;1.00;0.00;;;;;14.24;64.89;101319.78;4953229;28;45499;-59
2021/10/06 00:13:12;;;;;;;;;0.00;0.00;;;;;14.25;65.11;101320.63;4954553;28;45168;-58
2021/10/06 00:15:38;;;;;;;;;0.75;0.00;;;;;14.25;65.23;101325.94;4954058;28;45326;-58
2021/10/06 00:18:03;;;;;;;;;1.75;0.00;;;;;14.27;65.08;101328.47;4951273;28;45302;-59
2021/10/06 00:20:29;;;;;;;;;1.00;1.00;;;;;14.27;65.46;101334.63;4953078;28;45338;-59
2021/10/06 00:22:55;;;;;;;;;0.00;0.00;;;;;14.30;65.04;101346.81;4954503;28;45345;-59
2021/10/06 00:25:20;;;;;;;;;0.50;0.25;;;;;14.29;65.65;101340.66;4956583;28;45347;-59
2021/10/06 00:27:47;;;;;;;;;0.50;0.00;;;;;14.30;65.57;101347.69;4951698;28;45503;-58
2021/10/06 00:30:13;;;;;;;;;2.50;0.50;;;;;14.31;65.20;101344.09;4951744;28;45304;-59
2021/10/06 00:32:38;;;;;;;;;3.00;0.00;;;;;14.33;65.12;101357.22;4954850;28;45391;-59
2021/10/06 00:35:04;;;;;;;;;0.50;0.00;;;;;14.32;64.91;101352.88;4955880;28;45266;-58
2021/10/06 00:37:30;;;;;;;;;2.00;0.00;;;;;14.33;65.20;101362.53;4956003;28;45453;-59
2021/10/06 00:39:55;;;;;;;;;0.00;0.00;;;;;14.32;65.11;101360.84;4953922;28;45364;-58
2021/10/06 00:42:21;;;;;;;;;0.00;0.00;;;;;14.29;64.84;101359.22;4953529;28;45401;-58
2021/10/06 00:44:46;;;;;;;;;0.25;0.00;;;;;14.29;65.10;101366.31;4955460;28;45438;-59
2021/10/06 00:47:13;;;;;;;;;2.50;0.75;;;;;14.28;65.09;101368.13;4955586;28;45320;-59
2021/10/06 00:49:40;;;;;;;;;0.00;0.00;;;;;14.27;64.89;101363.78;4954139;28;47558;-58
2021/10/06 00:52:06;;;;;;;;;2.50;0.00;;;;;14.27;65.60;101360.28;4951299;28;45457;-58
2021/10/06 00:54:31;;;;;;;;;4.25;1.00;;;;;14.26;64.91;101364.72;4961819;28;45477;-58
2021/10/06 00:56:57;;;;;;;;;0.25;0.25;;;;;14.24;65.31;101369.28;4957547;28;45444;-58
2021/10/06 00:59:22;;;;;;;;;0.00;0.00;;;;;14.22;65.47;101371.19;4962476;28;46025;-58
2021/10/06 01:01:48;;;;;;;;;1.00;0.00;;;;;14.21;65.26;101367.66;4957632;28;45404;-59
2021/10/06 01:04:13;;;;;;;;;0.50;0.00;;;;;14.18;65.14;101375.81;4958720;28;45290;-58
2021/10/06 01:06:39;;;;;;;;;0.75;0.75;;;;;14.17;65.00;101367.97;4962562;28;45299;-59
2021/10/06 01:09:05;;;;;;;;;3.00;0.00;;;;;14.14;65.46;101366.38;4959787;28;45386;-59
2021/10/06 01:11:30;;;;;;;;;1.25;0.00;;;;;14.13;65.40;101369.09;4962094;28;45316;-59
2021/10/06 01:13:57;;;;;;;;;1.00;0.00;;;;;14.11;65.72;101371.84;4962641;28;45182;-59
2021/10/06 01:16:23;;;;;;;;;1.50;0.00;;;;;14.10;65.55;101366.66;4962448;28;45512;-58
2021/10/06 01:18:49;;;;;;;;;0.00;0.00;;;;;14.09;65.34;101381.72;4962264;28;46063;-59
2021/10/06 01:21:17;;;;;;;;;1.00;0.75;;;;;14.07;65.68;101375.66;4960907;28;45308;-58
2021/10/06 01:23:47;;;;;;;;;0.00;0.00;;;;;14.04;65.83;101378.50;4945658;28;45392;-58
2021/10/06 01:26:18;;;;;;;;;0.00;0.00;;;;;14.04;65.89;101380.28;4949350;28;45525;-59
2021/10/06 01:28:46;;;;;;;;;5.00;0.75;;;;;14.02;65.65;101384.84;4960540;28;46418;-59
2021/10/06 01:31:12;;;;;;;;;0.00;0.00;;;;;14.00;65.75;101373.50;4950367;28;45329;-59
2021/10/06 01:33:37;;;;;;;;;2.75;1.00;;;;;13.99;65.94;101379.75;4954361;28;45278;-59
2021/10/06 01:36:03;;;;;;;;;0.75;0.00;;;;;13.99;65.82;101388.53;4961456;28;45452;-59
2021/10/06 01:38:28;;;;;;;;;1.75;1.00;;;;;14.01;66.12;101388.44;4956766;28;45306;-58
2021/10/06 01:40:54;;;;;;;;;1.75;0.00;;;;;13.99;65.98;101390.34;4961993;28;45455;-59
2021/10/06 01:43:19;;;;;;;;;1.25;0.00;;;;;13.96;65.88;101394.88;4954799;28;45323;-59
2021/10/06 01:45:45;;;;;;;;;3.00;1.00;;;;;13.96;66.19;101401.97;4951986;28;45565;-59
2021/10/06 01:48:12;;;;;;;;;1.00;1.00;;;;;13.94;66.09;101401.22;4958197;28;45338;-59
2021/10/06 01:50:41;;;;;;;;;1.00;0.00;;;;;13.92;66.10;101400.47;4948011;28;45240;-58
2021/10/06 01:53:08;;;;;;;;;3.75;0.25;;;;;13.90;66.07;101399.69;4961977;28;45464;-58
2021/10/06 01:55:34;;;;;;;;;0.00;0.00;;;;;13.85;66.24;101389.41;4962122;28;45255;-59
2021/10/06 01:58:03;;;;;;;;;0.00;0.00;;;;;13.86;66.38;101388.44;4961659;28;46811;-58
2021/10/06 02:00:29;;;;;;;;;0.00;0.00;;;;;13.86;66.42;101398.19;4955460;28;45330;-58
2021/10/06 02:02:54;;;;;;;;;2.50;0.00;;;;;13.83;66.65;101388.66;4958688;28;45393;-58
2021/10/06 02:05:20;;;;;;;;;1.50;0.75;;;;;13.82;66.17;101397.53;4952500;28;45152;-58
2021/10/06 02:07:46;;;;;;;;;0.75;0.00;;;;;13.78;66.59;101398.69;4946212;28;45905;-58
2021/10/06 02:10:11;;;;;;;;;0.75;0.00;;;;;13.77;66.41;101396.13;4942579;28;45472;-58
2021/10/06 02:12:38;;;;;;;;;1.00;0.00;;;;;13.75;66.62;101390.09;4956404;28;45302;-59
2021/10/06 02:15:05;;;;;;;;;1.00;1.00;;;;;13.74;66.69;101391.00;4961669;28;45409;-58
2021/10/06 02:17:31;;;;;;;;;1.00;0.00;;;;;13.74;66.73;101391.84;4958494;28;45651;-59
2021/10/06 02:19:57;;;;;;;;;2.25;0.00;;;;;13.75;66.69;101387.44;4961630;28;45377;-58
2021/10/06 02:22:22;;;;;;;;;1.50;0.50;;;;;13.76;66.54;101397.06;4961584;28;45282;-59
2021/10/06 02:24:48;;;;;;;;;3.25;0.00;;;;;13.76;66.58;101395.28;4961670;28;45556;-59
2021/10/06 02:27:13;;;;;;;;;1.00;0.00;;;;;13.75;66.71;101401.53;4958023;28;45666;-59
2021/10/06 02:29:39;;;;;;;;;2.00;0.00;;;;;13.73;66.62;101400.75;4945615;28;45297;-58
2021/10/06 02:32:05;;;;;;;;;0.75;0.00;;;;;13.73;66.40;101407.84;4947319;28;45201;-58
2021/10/06 02:34:30;;;;;;;;;2.50;0.00;;;;;13.73;66.39;101406.03;4946292;28;45313;-58
2021/10/06 02:36:55;;;;;;;;;2.25;0.00;;;;;13.73;66.53;101397.25;4949049;28;45334;-58
2021/10/06 02:39:21;;;;;;;;;1.00;0.00;;;;;13.71;66.70;101399.16;4945624;28;45322;-59
2021/10/06 02:41:47;;;;;;;;;0.00;0.00;;;;;13.71;66.78;101415.03;4959158;28;45456;-58
2021/10/06 02:44:12;;;;;;;;;1.25;1.00;;;;;13.68;66.85;101418.72;4945618;28;45397;-58
2021/10/06 02:46:38;;;;;;;;;2.00;0.00;;;;;13.65;66.89;101409.16;4944965;28;45313;-58
2021/10/06 02:49:03;;;;;;;;;4.00;0.00;;;;;13.63;66.93;101408.41;4945204;28;45321;-59
2021/10/06 02:51:29;;;;;;;;;1.25;0.00;;;;;13.64;67.09;101425.16;4946397;28;45245;-58
2021/10/06 02:53:54;;;;;;;;;1.25;1.00;;;;;13.64;67.26;101420.69;4945469;28;45342;-58
2021/10/06 02:56:20;;;;;;;;;0.00;0.00;;;;;13.65;67.21;101429.50;4945036;28;45568;-58
2021/10/06 02:58:46;;;;;;;;;2.75;1.00;;;;;13.66;67.27;101434.69;4945139;28;45258;-58
2021/10/06 03:01:11;;;;;;;;;0.50;0.50;;;;;13.66;67.09;101433.84;4958727;28;45426;-59
2021/10/06 03:03:37;;;;;;;;;0.00;0.00;;;;;13.64;67.02;101439.22;4963857;28;45381;-59
2021/10/06 03:06:03;;;;;;;;;4.50;0.50;;;;;13.63;67.04;101442.81;4964388;28;45246;-58
2021/10/06 03:08:28;;;;;;;;;3.00;0.00;;;;;13.60;67.16;101439.53;4957423;28;45328;-60
2021/10/06 03:10:54;;;;;;;;;2.00;0.00;;;;;13.59;67.06;101443.97;4945730;28;45452;-58
2021/10/06 03:13:19;;;;;;;;;1.00;1.00;;;;;13.58;67.35;101438.75;4944985;28;45448;-58
2021/10/06 03:15:45;;;;;;;;;2.00;1.00;;;;;13.58;67.57;101444.88;4951976;28;46026;-58
2021/10/06 03:18:10;;;;;;;;;3.00;0.00;;;;;13.57;67.37;101445.84;4946781;28;45314;-58
2021/10/06 03:20:36;;;;;;;;;1.00;0.00;;;;;13.58;67.49;101449.34;4953706;28;45302;-58
2021/10/06 03:23:06;;;;;;;;;0.00;0.00;;;;;13.57;67.52;101455.56;4947510;28;45177;-59
2021/10/06 03:25:32;;;;;;;;;0.50;0.50;;;;;13.56;67.41;101459.19;4944696;28;45362;-58
2021/10/06 03:27:58;;;;;;;;;1.25;0.25;;;;;13.55;67.34;101450.38;4944324;28;45520;-59
2021/10/06 03:30:24;;;;;;;;;0.00;0.00;;;;;13.53;67.39;101452.28;4952078;28;45263;-58
2021/10/06 03:32:50;;;;;;;;;1.00;1.00;;;;;13.53;67.62;101459.38;4963262;28;45422;-59
2021/10/06 03:35:18;;;;;;;;;2.50;1.00;;;;;13.54;67.62;101456.63;4963406;28;45281;-58
2021/10/06 03:37:48;;;;;;;;;0.00;0.00;;;;;13.55;67.36;101463.63;4963842;28;45270;-58
2021/10/06 03:40:13;;;;;;;;;1.00;0.00;;;;;13.55;67.40;101462.75;4963405;28;45231;-58
2021/10/06 03:42:39;;;;;;;;;0.00;0.00;;;;;13.56;67.55;101469.75;4950246;28;45227;-58
2021/10/06 03:45:08;;;;;;;;;2.00;0.75;;;;;13.56;67.44;101467.97;4944214;28;45426;-58
2021/10/06 03:47:34;;;;;;;;;0.00;0.00;;;;;13.57;67.65;101482.06;4944009;28;45278;-58
2021/10/06 03:49:59;;;;;;;;;0.00;0.00;;;;;13.57;67.19;101474.09;4948730;28;45337;-58
2021/10/06 03:52:25;;;;;;;;;2.75;0.25;;;;;13.59;67.46;101478.38;4945538;28;45306;-58
2021/10/06 03:54:50;;;;;;;;;0.00;0.00;;;;;13.61;67.56;101473.84;4944189;28;46481;-58
2021/10/06 03:57:16;;;;;;;;;0.00;0.00;;;;;13.60;67.43;101476.59;4944200;28;45314;-58
2021/10/06 03:59:42;;;;;;;;;4.00;0.00;;;;;13.58;67.45;101475.81;4946132;28;45760;-58
2021/10/06 04:02:08;;;;;;;;;0.00;0.00;;;;;13.57;67.34;101482.91;4945484;28;45243;-59
2021/10/06 04:04:34;;;;;;;;;0.00;0.00;;;;;13.58;67.49;101489.03;4955506;28;45413;-59
2021/10/06 04:06:59;;;;;;;;;1.00;0.00;;;;;13.57;68.01;101500.56;4963177;28;45321;-59
2021/10/06 04:09:25;;;;;;;;;1.50;0.00;;;;;13.56;67.34;101494.44;4949259;28;45286;-59
2021/10/06 04:11:50;;;;;;;;;2.25;0.00;;;;;13.55;67.32;101500.69;4943894;28;45356;-59
2021/10/06 04:14:16;;;;;;;;;0.50;0.25;;;;;13.54;67.25;101509.56;4943953;28;45870;-59
2021/10/06 04:16:41;;;;;;;;;3.00;0.00;;;;;13.52;67.41;101498.22;4943930;28;45395;-58
2021/10/06 04:19:06;;;;;;;;;1.50;1.00;;;;;13.54;67.24;101500.78;4951569;28;45224;-59
2021/10/06 04:21:32;;;;;;;;;5.00;1.00;;;;;13.51;67.43;101496.53;4943829;28;45410;-59
2021/10/06 04:23:57;;;;;;;;;0.00;0.00;;;;;13.49;67.74;101503.69;4943707;28;46204;-59
2021/10/06 04:26:23;;;;;;;;;2.00;1.00;;;;;13.48;67.34;101503.78;4943684;28;45302;-59
2021/10/06 04:28:48;;;;;;;;;2.00;0.50;;;;;13.47;67.55;101497.63;4949303;28;45418;-59
2021/10/06 04:31:14;;;;;;;;;1.00;0.00;;;;;13.46;67.49;101493.28;4943595;28;45321;-59
2021/10/06 04:33:39;;;;;;;;;0.25;0.25;;;;;13.45;67.75;101486.28;4943489;28;45484;-59
2021/10/06 04:36:05;;;;;;;;;1.00;0.00;;;;;13.46;67.48;101497.72;4943565;28;45409;-59
2021/10/06 04:38:30;;;;;;;;;1.00;0.00;;;;;13.43;67.67;101498.78;4946899;28;45402;-58
2021/10/06 04:40:56;;;;;;;;;3.25;0.00;;;;;13.42;67.74;101494.41;4943755;28;45509;-59
2021/10/06 04:43:22;;;;;;;;;0.25;0.25;;;;;13.43;67.36;101503.19;4961548;28;45309;-59
2021/10/06 04:45:47;;;;;;;;;0.50;0.00;;;;;13.41;67.46;101508.56;4945273;28;45330;-58
2021/10/06 04:48:12;;;;;;;;;53.25;39.25;;;;;13.43;67.82;101519.06;4944135;28;45433;-58
2021/10/06 04:50:38;;;;;;;;;0.25;0.25;;;;;13.40;67.92;101522.75;4943437;28;45424;-59
2021/10/06 04:53:04;;;;;;;;;1.00;0.00;;;;;13.40;67.62;101531.53;4943513;28;45285;-59
2021/10/06 04:55:30;;;;;;;;;3.00;1.00;;;;;13.39;67.89;101529.84;4942996;28;45429;-58
2021/10/06 04:57:57;;;;;;;;;3.25;1.75;;;;;13.40;68.10;101541.28;4952855;28;45221;-58
2021/10/06 05:00:24;;;;;;;;;1.00;1.00;;;;;13.40;67.85;101533.34;4944976;28;45486;-59
2021/10/06 05:02:50;;;;;;;;;1.00;0.50;;;;;13.37;67.81;101537.03;4943152;28;46591;-59
2021/10/06 05:05:15;;;;;;;;;0.75;0.00;;;;;13.36;67.66;101545.91;4960202;28;45483;-59
2021/10/06 05:07:41;;;;;;;;;2.00;1.00;;;;;13.35;67.81;101540.69;4962092;28;45294;-59
2021/10/06 05:10:07;;;;;;;;;4.00;1.00;;;;;13.35;68.17;101541.56;4960277;28;45397;-57
2021/10/06 05:12:32;;;;;;;;;0.00;0.00;;;;;13.38;68.18;101551.09;4962606;28;45278;-57
2021/10/06 05:14:58;;;;;;;;;0.50;0.00;;;;;13.38;68.00;101553.75;4962221;28;45319;-59
2021/10/06 05:17:23;;;;;;;;;0.50;0.50;;;;;13.36;67.91;101548.56;4962217;28;45459;-59
2021/10/06 05:19:49;;;;;;;;;0.00;0.00;;;;;13.38;68.06;101545.81;4945033;28;45548;-59
2021/10/06 05:22:15;;;;;;;;;0.75;0.75;;;;;13.37;67.96;101560.84;4942974;28;46201;-59
2021/10/06 05:24:40;;;;;;;;;1.00;0.75;;;;;13.38;67.98;101573.13;4942928;28;45247;-57
2021/10/06 05:27:06;;;;;;;;;2.00;1.00;;;;;13.39;68.25;101568.69;4945016;28;45567;-58
2021/10/06 05:29:31;;;;;;;;;0.00;0.00;;;;;13.35;68.22;101565.38;4945731;28;45581;-58
2021/10/06 05:32:03;;;;;;;;;0.50;0.25;;;;;13.37;67.91;101576.72;4942584;28;46184;-58
2021/10/06 05:34:28;;;;;;;;;1.00;0.75;;;;;13.35;68.15;101569.78;4942414;28;45251;-58
2021/10/06 05:36:54;;;;;;;;;1.00;1.00;;;;;13.36;68.12;101582.13;4943141;28;45255;-58
2021/10/06 05:39:19;;;;;;;;;2.50;1.50;;;;;13.35;67.98;101581.25;4961810;28;45684;-57
2021/10/06 05:41:45;;;;;;;;;1.00;0.25;;;;;13.35;68.16;101585.66;4956641;28;46003;-58
2021/10/06 05:44:10;;;;;;;;;3.00;0.50;;;;;13.34;67.98;101586.63;4942550;28;45247;-58
2021/10/06 05:46:36;;;;;;;;;2.75;0.00;;;;;13.34;68.05;101592.75;4957509;28;45521;-58
2021/10/06 05:49:01;;;;;;;;;1.00;0.00;;;;;13.32;68.02;101594.66;4955306;28;45133;-57
2021/10/06 05:51:27;;;;;;;;;0.00;0.00;;;;;13.32;68.38;101602.59;4942503;28;45416;-58
2021/10/06 05:53:52;;;;;;;;;1.50;0.25;;;;;13.33;68.27;101600.78;4942419;28;45378;-57
2021/10/06 05:56:18;;;;;;;;;1.00;1.00;;;;;13.33;68.35;101601.63;4942557;28;45347;-58
2021/10/06 05:58:43;;;;;;;;;2.00;0.00;;;;;13.32;68.20;101602.59;4956870;28;45565;-58
2021/10/06 06:01:09;;;;;;;;;0.25;0.00;;;;;13.32;68.26;101601.72;4961599;28;45846;-58
2021/10/06 06:03:34;;;;;;;;;0.75;0.75;;;;;13.32;68.24;101604.38;4961277;28;45404;-58
2021/10/06 06:06:00;;;;;;;;;0.00;0.00;;;;;13.33;68.40;101601.63;4961772;28;45367;-58
2021/10/06 06:08:25;;;;;;;;;3.25;1.00;;;;;13.36;68.00;101600.63;4958783;28;45537;-58
2021/10/06 06:10:51;;;;;;;;;3.00;1.00;;;;;13.37;68.03;101602.34;4946038;28;46052;-58
2021/10/06 06:13:16;;;;;;;;;1.75;0.25;;;;;13.36;68.24;101598.00;4955482;28;45524;-58
2021/10/06 06:15:42;;;;;;;;;1.00;1.00;;;;;13.36;68.16;101598.84;4945927;28;45409;-55
2021/10/06 06:18:07;;;;;;;;;2.00;1.00;;;;;13.35;68.22;101602.44;4945226;28;45255;-56
2021/10/06 06:20:33;;;;;;;;;0.50;0.50;;;;;13.35;68.14;101604.19;4950627;28;45297;-58
2021/10/06 06:22:58;;;;;;;;;3.00;2.25;;;;;13.36;68.09;101609.44;4951214;28;45182;-57
2021/10/06 06:25:24;;;;;;;;;1.00;1.00;;;;;13.38;68.14;101615.47;4945687;28;45230;-58
2021/10/06 06:27:50;;;;;;;;;0.75;0.00;;;;;13.38;67.98;101620.75;4951685;28;45535;-58
2021/10/06 06:30:15;;;;;;;;;1.00;0.00;;;;;13.41;68.17;101622.38;4958563;28;45902;-58
2021/10/06 06:32:41;;;;;;;;;1.00;1.00;;;;;13.40;68.13;101632.09;4964379;28;45223;-57
2021/10/06 06:35:08;;;;;;;;;1.00;0.00;;;;;13.40;68.09;101626.81;4964717;28;45232;-58
2021/10/06 06:37:33;;;;;;;;;2.00;1.00;;;;;13.41;68.14;101623.22;4963333;28;45412;-57
2021/10/06 06:39:59;;;;;;;;;1.00;0.00;;;;;13.43;68.05;101630.22;4945168;28;45744;-58
2021/10/06 06:42:25;;;;;;;;;1.25;0.75;;;;;13.46;67.87;101635.34;4955376;28;45394;-60
2021/10/06 06:44:50;;;;;;;;;2.00;1.00;;;;;13.47;67.97;101632.63;4960480;28;45494;-65
2021/10/06 06:47:16;;;;;;;;;3.50;1.00;;;;;13.49;67.77;101640.47;4964007;28;45348;-66
2021/10/06 06:49:42;;;;;;;;;0.50;0.50;;;;;13.49;67.50;101641.31;4962793;28;45537;-66
2021/10/06 06:52:07;;;;;;;;;3.50;0.00;;;;;13.47;67.68;101640.56;4963990;28;45274;-66
2021/10/06 06:54:33;;;;;;;;;5.00;0.00;;;;;13.50;67.45;101639.53;4962936;28;45500;-63
2021/10/06 06:56:59;;;;;;;;;5.00;1.50;;;;;13.53;67.45;101652.59;4964015;28;45491;-61
2021/10/06 06:59:24;;;;;;;;;3.25;1.00;;;;;13.54;67.52;101655.16;4960810;28;46130;-62
2021/10/06 07:01:50;;;;;;;;;0.00;0.00;;;;;13.55;67.83;101663.94;4957864;28;45297;-62
2021/10/06 07:04:15;;;;;;;;;6.25;2.00;;;;;13.55;67.54;101654.22;4959991;28;45471;-62
2021/10/06 07:06:41;;;;;;;;;3.75;2.00;;;;;13.56;67.51;101663.00;4959089;28;45613;-62
2021/10/06 07:09:07;;;;;;;;;2.00;1.00;;;;;13.59;67.52;101676.09;4960335;28;45626;-63
2021/10/06 07:11:33;;;;;;;;;0.00;0.00;;;;;13.62;67.41;101673.25;4953080;28;45519;-65
2021/10/06 07:13:59;;;;;;;;;3.75;0.25;;;;;13.63;67.51;101670.50;4960253;28;45280;-63
2021/10/06 07:16:25;;;;;;;;;1.50;1.00;;;;;13.61;67.48;101679.50;4963911;28;45346;-67
2021/10/06 07:18:50;;;;;;;;;0.25;0.00;;;;;13.62;67.52;101675.91;4963481;28;46091;-65
2021/10/06 07:21:16;;;;;;;;;1.25;0.50;;;;;13.65;67.40;101689.81;4963386;28;45432;-67
2021/10/06 07:23:41;;;;;;;;;4.00;1.00;;;;;13.65;67.43;101686.31;4963656;28;45434;-69
2021/10/06 07:26:07;;;;;;;;;3.50;1.00;;;;;13.70;67.28;101694.84;4963054;28;45205;-70
2021/10/06 07:28:33;;;;;;;;;1.00;1.00;;;;;13.72;67.59;101685.00;4963562;28;45479;-66
2021/10/06 07:30:58;;;;;;;;;3.25;1.00;;;;;13.78;67.52;101686.47;4961629;28;45410;-66
2021/10/06 07:33:24;;;;;;;;;1.00;0.00;;;;;13.82;67.34;101691.47;4963387;28;45559;-64
2021/10/06 07:35:50;;;;;;;;;2.50;1.75;;;;;13.85;67.08;101683.38;4964148;28;45358;-74
2021/10/06 07:38:16;;;;;;;;;1.25;1.00;;;;;13.87;67.27;101691.22;4959828;28;45958;-73
2021/10/06 07:40:42;;;;;;;;;1.00;1.00;;;;;13.91;66.82;101684.81;4961007;28;45208;-71
2021/10/06 07:43:07;;;;;;;;;1.75;0.75;;;;;13.94;67.30;101682.84;4950861;28;45336;-73
2021/10/06 07:45:33;;;;;;;;;2.00;1.00;;;;;13.94;66.93;101680.19;4962701;28;45378;-77
2021/10/06 07:47:59;;;;;;;;;1.50;1.00;;;;;13.96;66.95;101686.25;4959423;28;45487;-69
2021/10/06 07:50:25;;;;;;;;;1.75;1.00;;;;;14.00;66.97;101696.69;4953768;28;45357;-69
2021/10/06 07:52:50;;;;;;;;;2.75;1.00;;;;;14.06;67.02;101704.25;4960785;28;45550;-69
2021/10/06 07:55:17;;;;;;;;;4.00;2.00;;;;;14.13;67.17;101703.78;4960793;28;45468;-70
2021/10/06 07:57:43;;;;;;;;;3.50;1.00;;;;;14.18;66.87;101706.19;4961221;28;45442;-69
2021/10/06 08:00:09;;;;;;;;;1.00;1.00;;;;;14.23;66.86;101710.28;4961852;28;45400;-69
2021/10/06 08:02:35;;;;;;;;;1.50;1.00;;;;;14.30;66.55;101713.44;4977776;28;45399;-71
2021/10/06 08:05:00;;;;;;;;;4.00;0.25;;;;;14.34;66.30;101722.88;4962317;28;45222;-69
2021/10/06 08:07:26;;;;;;;;;4.50;0.75;;;;;14.39;66.25;101720.84;4961335;28;45684;-71
2021/10/06 08:09:51;;;;;;;;;3.25;0.75;;;;;14.44;66.40;101721.38;4962485;28;45531;-72
2021/10/06 08:12:17;;;;;;;;;4.00;1.00;;;;;14.50;66.08;101726.38;4963273;28;45204;-72
2021/10/06 08:14:42;;;;;;;;;1.00;1.00;;;;;14.52;65.70;101721.81;4960722;28;45495;-71
2021/10/06 08:17:08;;;;;;;;;2.25;0.25;;;;;14.57;65.73;101732.16;4961797;28;46097;-70
2021/10/06 08:19:33;;;;;;;;;2.25;1.00;;;;;14.62;65.77;101742.50;4962928;28;45426;-70
2021/10/06 08:21:59;;;;;;;;;1.00;0.00;;;;;14.69;65.28;101743.81;4963216;28;45552;-71
2021/10/06 08:24:24;;;;;;;;;2.50;1.25;;;;;14.72;65.39;101741.00;4948636;28;45603;-71
2021/10/06 08:26:51;;;;;;;;;2.50;1.00;;;;;14.76;65.69;101742.50;4944093;28;45315;-71
2021/10/06 08:29:16;;;;;;;;;1.75;0.25;;;;;14.83;65.55;101745.63;4943037;28;45423;-71
2021/10/06 08:31:42;;;;;;;;;0.00;0.00;;;;;14.86;65.12;101740.16;4943808;28;45318;-70
2021/10/06 08:34:07;;;;;;;;;3.00;2.00;;;;;14.93;65.14;101749.41;4943621;28;45235;-71
2021/10/06 08:36:33;;;;;;;;;3.00;1.00;;;;;14.95;64.81;101748.41;4943750;28;45224;-70
2021/10/06 08:39:00;;;;;;;;;3.00;1.00;;;;;14.98;64.85;101734.06;4945547;28;45401;-70
2021/10/06 08:41:25;;;;;;;;;6.00;0.00;;;;;15.02;64.93;101738.25;4960565;28;45261;-70
2021/10/06 08:43:51;;;;;;;;;2.50;0.75;;;;;15.06;64.67;101739.75;4943697;28;45216;-69
2021/10/06 08:46:17;;;;;;;;;1.00;1.00;;;;;15.12;64.58;101738.53;4943550;28;46127;-70
2021/10/06 08:48:43;;;;;;;;;2.25;1.00;;;;;15.18;64.72;101743.47;4943238;28;45447;-69
2021/10/06 08:51:08;;;;;;;;;2.50;1.75;;;;;15.24;64.58;101746.56;4958404;28;45419;-69
2021/10/06 08:53:33;;;;;;;;;1.00;1.00;;;;;15.31;64.70;101747.88;4952176;28;45263;-70
2021/10/06 08:55:59;;;;;;;;;2.00;2.00;;;;;15.35;64.17;101753.88;4958890;28;46070;-69
2021/10/06 08:58:25;;;;;;;;;3.25;1.25;;;;;15.43;64.04;101753.41;4958595;28;45338;-70
2021/10/06 09:00:58;;;;;;;;;4.75;1.00;;;;;15.47;64.05;101757.53;4950713;28;45293;-70
2021/10/06 09:03:26;;;;;;;;;2.00;1.75;;;;;15.53;64.18;101765.97;4962706;28;45472;-69
2021/10/06 09:06:05;;;;;;;;;1.00;1.00;;;;;15.60;63.77;101761.13;4945062;28;45429;-71
2021/10/06 09:08:32;;;;;;;;;3.75;1.50;;;;;15.63;63.71;101769.78;4943158;28;45302;-70
2021/10/06 09:10:58;;;;;;;;;3.25;2.00;;;;;15.68;63.64;101769.50;4943792;28;45424;-70
2021/10/06 09:13:26;;;;;;;;;1.00;1.00;;;;;15.68;63.33;101779.28;4943655;28;45318;-71
2021/10/06 09:15:52;;;;;;;;;1.50;1.00;;;;;15.67;63.15;101769.59;4943223;28;45384;-69
2021/10/06 09:18:22;;;;;;;;;3.00;0.50;;;;;15.70;62.98;101777.34;4942694;28;45275;-70
2021/10/06 09:20:48;;;;;;;;;2.75;2.00;;;;;15.72;63.03;101778.09;4943285;28;45373;-70
2021/10/06 09:23:16;;;;;;;;;5.50;2.00;;;;;15.78;62.86;101780.38;4942996;28;45523;-69
2021/10/06 09:25:59;;;;;;;;;1.75;1.75;;;;;15.82;63.01;101776.59;4943032;28;45448;-69
2021/10/06 09:28:50;;;;;;;;;2.00;0.50;;;;;15.89;62.51;101785.88;4942833;28;45475;-70
2021/10/06 09:31:21;;;;;;;;;3.25;1.50;;;;;15.91;62.43;101784.81;4942720;28;45271;-70
2021/10/06 09:33:51;;;;;;;;;3.00;0.50;;;;;15.98;62.47;101787.06;4942804;28;45271;-70
2021/10/06 09:36:29;;;;;;;;;3.75;1.00;;;;;16.01;62.10;101781.53;4942607;28;45290;-71
2021/10/06 09:38:57;;;;;;;;;1.25;1.00;;;;;16.06;61.96;101774.97;4942793;28;45355;-69
2021/10/06 09:41:41;;;;;;;;;1.75;0.50;;;;;16.13;61.59;101792.22;4944011;28;45461;-69
2021/10/06 09:44:09;;;;;;;;;5.50;1.00;;;;;16.19;61.40;101782.97;4962256;28;45437;-69
2021/10/06 09:46:57;;;;;;;;;2.00;2.00;;;;;16.22;61.41;101781.94;4957519;28;47909;-69
2021/10/06 09:49:27;;;;;;;;;4.75;1.00;;;;;16.30;61.51;101787.59;4942426;28;45409;-70
2021/10/06 09:51:56;;;;;;;;;3.00;1.00;;;;;16.37;61.62;101792.41;4942656;28;45296;-71
2021/10/06 09:54:22;;;;;;;;;3.25;2.00;;;;;16.47;61.18;101787.31;4958153;28;45217;-70
2021/10/06 09:56:50;;;;;;;;;30.25;27.75;;;;;16.54;60.92;101793.94;4944701;28;45499;-67
2021/10/06 09:59:17;;;;;;;;;12.75;7.00;;;;;16.59;60.47;101788.28;4952995;28;45310;-65
2021/10/06 10:01:45;;;;;;;;;4.25;1.00;;;;;16.64;60.51;101795.00;4954360;28;45268;-72
2021/10/06 10:04:12;;;;;;;;;1.75;1.00;;;;;16.67;60.02;101789.50;4953607;28;45270;-65
2021/10/06 10:06:39;;;;;;;;;2.50;0.00;;;;;16.73;59.98;101799.72;4955457;28;45528;-65
2021/10/06 10:09:10;;;;;;;;;5.00;1.50;;;;;16.71;60.05;101791.00;4951662;28;45460;-68
2021/10/06 10:11:37;;;;;;;;;5.50;0.50;;;;;16.73;59.94;101797.06;4952523;28;45313;-68
2021/10/06 10:14:05;;;;;;;;;2.75;0.00;;;;;16.81;60.01;101801.88;4955454;28;45416;-65
2021/10/06 10:16:32;;;;;;;;;3.25;1.00;;;;;16.88;59.70;101807.63;4949688;28;46271;-67
2021/10/06 10:19:07;;;;;;;;;5.00;1.00;;;;;16.94;59.56;101804.56;4951551;28;45255;-66
2021/10/06 10:21:33;;;;;;;;;5.00;4.00;;;;;16.96;59.50;101821.25;4951547;28;45309;-70
2021/10/06 10:24:08;;;;;;;;;8.75;3.50;;;;;16.94;58.65;101813.38;4950412;28;45573;-70
2021/10/06 10:26:33;;;;;;;;;1.25;1.00;;;;;16.91;58.29;101810.94;4952039;28;45338;-67
2021/10/06 10:28:59;;;;;;;;;4.00;1.75;;;;;16.94;58.81;101818.72;4954135;28;45357;-67
2021/10/06 10:31:25;;;;;;;;;1.00;0.75;;;;;17.03;58.48;101822.53;4951393;28;45278;-67
2021/10/06 10:33:55;;;;;;;;;3.00;1.00;;;;;17.13;58.20;101818.28;4952587;28;46085;-67
2021/10/06 10:36:29;;;;;;;;;2.00;1.00;;;;;17.21;57.64;101831.91;4949374;28;46352;-67
2021/10/06 10:38:55;;;;;;;;;1.25;1.00;;;;;17.18;57.01;101828.63;4950599;28;45292;-68
2021/10/06 10:41:40;;;;;;;;;4.00;2.00;;;;;17.15;56.66;101821.72;4952147;28;45400;-71
2021/10/06 10:44:09;;;;;;;;;1.75;1.00;;;;;17.15;56.73;101819.03;4951280;28;45360;-70
2021/10/06 10:46:57;;;;;;;;;2.75;0.50;;;;;17.20;56.33;101832.03;4950949;28;45370;-70
2021/10/06 10:49:23;;;;;;;;;0.50;0.00;;;;;17.24;55.92;101830.88;4949230;28;45595;-69
2021/10/06 10:51:57;;;;;;;;;2.75;1.00;;;;;17.28;55.79;101829.66;4950126;28;45541;-67
2021/10/06 10:54:34;;;;;;;;;4.25;1.50;;;;;17.33;55.32;101827.56;4954448;28;45559;-67
2021/10/06 10:57:26;;;;;;;;;1.25;0.50;;;;;17.42;55.44;101828.72;4953148;28;45504;-66
2021/10/06 10:59:54;;;;;;;;;2.50;1.00;;;;;17.52;55.21;101833.25;4954851;28;45239;-68
2021/10/06 11:02:34;;;;;;;;;5.50;1.00;;;;;17.66;54.87;101816.31;4955793;28;45342;-70
2021/10/06 11:05:03;;;;;;;;;2.75;1.75;;;;;17.80;54.99;101818.88;4953202;28;45228;-67
2021/10/06 11:07:29;;;;;;;;;1.00;0.00;;;;;17.86;54.07;101812.25;4956957;28;45823;-69
2021/10/06 11:10:18;;;;;;;;;1.25;1.25;;;;;17.93;53.82;101818.84;4955327;28;45310;-65
2021/10/06 11:12:53;;;;;;;;;1.00;1.00;;;;;17.98;53.62;101821.16;4954053;28;45416;-67
2021/10/06 11:15:19;;;;;;;;;0.25;0.00;;;;;18.03;53.45;101811.00;4955160;28;45354;-66
2021/10/06 11:18:06;;;;;;;;;1.25;1.00;;;;;18.05;53.63;101815.25;4953065;28;46034;-66
2021/10/06 11:20:45;;;;;;;;;1.00;1.00;;;;;18.12;53.60;101815.66;4953872;28;45219;-66
2021/10/06 11:23:41;;;;;;;;;2.50;1.00;;;;;18.17;53.17;101817.97;4954943;28;45529;-71